sensor_id;sensor_type;location;lat;lon;timestamp;P1;durP1;ratioP1;P2;durP2;ratioP2
63581;SDS011;49727;51.078;17.066;2023-04-06T00:10:04;71.82;;;39.97;;
63581;SDS011;49727;51.078;17.066;2023-04-06T00:25:05;60.22;;;30.95;;
63581;SDS011;49727;51.078;17.066;2023-04-06T00:40:06;62.65;;;31.27;;
63581;SDS011;49727;51.078;17.066;2023-04-06T00:55:07;44.03;;;25.10;;
63581;SDS011;49727;51.078;17.066;2023-04-06T01:10:07;48.20;;;26.13;;
63581;SDS011;49727;51.078;17.066;2023-04-06T01:25:08;46.22;;;28.00;;
63581;SDS011;49727;51.078;17.066;2023-04-06T01:40:09;48.72;;;27.13;;
63581;SDS011;49727;51.078;17.066;2023-04-06T01:55:11;52.78;;;29.45;;
63581;SDS011;49727;51.078;17.066;2023-04-06T02:10:12;57.15;;;30.13;;
63581;SDS011;49727;51.078;17.066;2023-04-06T02:25:15;59.67;;;31.17;;
63581;SDS011;49727;51.078;17.066;2023-04-06T02:40:15;51.28;;;27.50;;
63581;SDS011;49727;51.078;17.066;2023-04-06T02:55:16;44.35;;;26.50;;
63581;SDS011;49727;51.078;17.066;2023-04-06T03:10:16;43.67;;;26.05;;
63581;SDS011;49727;51.078;17.066;2023-04-06T03:25:17;34.88;;;21.88;;
63581;SDS011;49727;51.078;17.066;2023-04-06T03:40:17;38.65;;;23.30;;
63581;SDS011;49727;51.078;17.066;2023-04-06T03:55:17;43.85;;;26.77;;
63581;SDS011;49727;51.078;17.066;2023-04-06T04:10:18;44.17;;;25.60;;
63581;SDS011;49727;51.078;17.066;2023-04-06T04:25:18;42.88;;;23.98;;
63581;SDS011;49727;51.078;17.066;2023-04-06T04:40:18;46.75;;;23.55;;
63581;SDS011;49727;51.078;17.066;2023-04-06T04:55:19;58.17;;;29.13;;
63581;SDS011;49727;51.078;17.066;2023-04-06T05:10:19;65.30;;;28.40;;
63581;SDS011;49727;51.078;17.066;2023-04-06T05:25:20;46.10;;;28.10;;
63581;SDS011;49727;51.078;17.066;2023-04-06T05:40:20;50.88;;;26.25;;
63581;SDS011;49727;51.078;17.066;2023-04-06T05:55:20;47.20;;;25.95;;
63581;SDS011;49727;51.078;17.066;2023-04-06T06:10:22;43.97;;;25.95;;
63581;SDS011;49727;51.078;17.066;2023-04-06T06:25:23;37.03;;;22.45;;
63581;SDS011;49727;51.078;17.066;2023-04-06T06:40:24;31.60;;;20.40;;
63581;SDS011;49727;51.078;17.066;2023-04-06T06:55:24;37.08;;;22.85;;
63581;SDS011;49727;51.078;17.066;2023-04-06T07:10:26;35.05;;;22.92;;
63581;SDS011;49727;51.078;17.066;2023-04-06T07:25:27;34.50;;;21.15;;
63581;SDS011;49727;51.078;17.066;2023-04-06T07:40:27;34.80;;;20.45;;
63581;SDS011;49727;51.078;17.066;2023-04-06T07:55:28;29.48;;;15.32;;
63581;SDS011;49727;51.078;17.066;2023-04-06T08:10:28;15.25;;;9.77;;
63581;SDS011;49727;51.078;17.066;2023-04-06T08:25:29;21.75;;;13.68;;
63581;SDS011;49727;51.078;17.066;2023-04-06T08:40:29;16.27;;;10.38;;
63581;SDS011;49727;51.078;17.066;2023-04-06T08:55:30;12.38;;;9.18;;
63581;SDS011;49727;51.078;17.066;2023-04-06T09:10:32;13.87;;;8.07;;
63581;SDS011;49727;51.078;17.066;2023-04-06T09:25:32;13.43;;;7.93;;
63581;SDS011;49727;51.078;17.066;2023-04-06T09:40:32;13.00;;;8.50;;
63581;SDS011;49727;51.078;17.066;2023-04-06T09:55:42;9.52;;;6.18;;
63581;SDS011;49727;51.078;17.066;2023-04-06T10:10:43;7.57;;;5.60;;
63581;SDS011;49727;51.078;17.066;2023-04-06T10:25:54;7.37;;;5.40;;
63581;SDS011;49727;51.078;17.066;2023-04-06T10:41:06;8.90;;;5.37;;
63581;SDS011;49727;51.078;17.066;2023-04-06T10:56:12;6.03;;;4.57;;
63581;SDS011;49727;51.078;17.066;2023-04-06T11:11:16;11.63;;;5.37;;
63581;SDS011;49727;51.078;17.066;2023-04-06T11:26:18;6.70;;;4.80;;
63581;SDS011;49727;51.078;17.066;2023-04-06T11:41:18;8.65;;;4.40;;
63581;SDS011;49727;51.078;17.066;2023-04-06T11:56:27;6.67;;;4.97;;
63581;SDS011;49727;51.078;17.066;2023-04-06T12:11:30;10.07;;;5.70;;
63581;SDS011;49727;51.078;17.066;2023-04-06T12:26:31;8.32;;;6.03;;
63581;SDS011;49727;51.078;17.066;2023-04-06T12:41:32;15.38;;;7.55;;
63581;SDS011;49727;51.078;17.066;2023-04-06T12:56:32;9.73;;;6.97;;
63581;SDS011;49727;51.078;17.066;2023-04-06T13:11:33;8.40;;;6.13;;
63581;SDS011;49727;51.078;17.066;2023-04-06T13:26:33;7.47;;;5.60;;
63581;SDS011;49727;51.078;17.066;2023-04-06T13:41:33;9.37;;;5.40;;
63581;SDS011;49727;51.078;17.066;2023-04-06T13:56:34;8.95;;;5.47;;
63581;SDS011;49727;51.078;17.066;2023-04-06T14:11:34;12.88;;;7.03;;
63581;SDS011;49727;51.078;17.066;2023-04-06T14:26:35;10.55;;;5.75;;
63581;SDS011;49727;51.078;17.066;2023-04-06T14:41:36;11.37;;;6.00;;
63581;SDS011;49727;51.078;17.066;2023-04-06T14:56:36;10.40;;;6.05;;
63581;SDS011;49727;51.078;17.066;2023-04-06T15:11:38;8.60;;;5.73;;
63581;SDS011;49727;51.078;17.066;2023-04-06T15:26:38;8.05;;;6.05;;
63581;SDS011;49727;51.078;17.066;2023-04-06T15:41:39;7.90;;;5.85;;
63581;SDS011;49727;51.078;17.066;2023-04-06T15:56:40;8.07;;;5.93;;
63581;SDS011;49727;51.078;17.066;2023-04-06T16:11:40;10.90;;;6.47;;
63581;SDS011;49727;51.078;17.066;2023-04-06T16:26:40;9.52;;;5.50;;
63581;SDS011;49727;51.078;17.066;2023-04-06T16:41:41;10.82;;;5.95;;
63581;SDS011;49727;51.078;17.066;2023-04-06T16:56:42;7.85;;;6.30;;
63581;SDS011;49727;51.078;17.066;2023-04-06T17:11:42;13.07;;;6.90;;
63581;SDS011;49727;51.078;17.066;2023-04-06T17:26:42;11.25;;;6.70;;
63581;SDS011;49727;51.078;17.066;2023-04-06T17:41:43;11.90;;;7.32;;
63581;SDS011;49727;51.078;17.066;2023-04-06T17:56:43;10.70;;;6.88;;
63581;SDS011;49727;51.078;17.066;2023-04-06T18:11:43;8.93;;;5.63;;
63581;SDS011;49727;51.078;17.066;2023-04-06T18:26:44;12.95;;;6.88;;
63581;SDS011;49727;51.078;17.066;2023-04-06T18:41:45;12.98;;;6.90;;
63581;SDS011;49727;51.078;17.066;2023-04-06T18:56:45;11.88;;;7.57;;
63581;SDS011;49727;51.078;17.066;2023-04-06T19:11:46;11.80;;;7.97;;
63581;SDS011;49727;51.078;17.066;2023-04-06T19:26:46;15.73;;;8.13;;
63581;SDS011;49727;51.078;17.066;2023-04-06T19:41:47;11.75;;;8.52;;
63581;SDS011;49727;51.078;17.066;2023-04-06T19:56:47;14.30;;;8.43;;
63581;SDS011;49727;51.078;17.066;2023-04-06T20:11:48;14.63;;;9.23;;
63581;SDS011;49727;51.078;17.066;2023-04-06T20:26:48;14.13;;;9.40;;
63581;SDS011;49727;51.078;17.066;2023-04-06T20:41:49;18.02;;;10.52;;
63581;SDS011;49727;51.078;17.066;2023-04-06T20:56:50;17.73;;;10.00;;
63581;SDS011;49727;51.078;17.066;2023-04-06T21:11:50;16.17;;;9.85;;
63581;SDS011;49727;51.078;17.066;2023-04-06T21:26:50;17.30;;;9.50;;
63581;SDS011;49727;51.078;17.066;2023-04-06T21:41:51;16.63;;;9.02;;
63581;SDS011;49727;51.078;17.066;2023-04-06T21:56:51;15.07;;;10.07;;
63581;SDS011;49727;51.078;17.066;2023-04-06T22:11:52;13.35;;;8.50;;
63581;SDS011;49727;51.078;17.066;2023-04-06T22:26:52;15.02;;;9.18;;
63581;SDS011;49727;51.078;17.066;2023-04-06T22:41:52;18.17;;;10.85;;
63581;SDS011;49727;51.078;17.066;2023-04-06T22:56:53;15.43;;;9.32;;
63581;SDS011;49727;51.078;17.066;2023-04-06T23:11:53;19.15;;;10.32;;
63581;SDS011;49727;51.078;17.066;2023-04-06T23:26:55;19.20;;;11.40;;
63581;SDS011;49727;51.078;17.066;2023-04-06T23:41:55;15.68;;;9.05;;
63581;SDS011;49727;51.078;17.066;2023-04-06T23:56:56;14.25;;;8.88;;
